createdAt,value
2018-09-21T00:00:00.951Z,7.60
2018-09-21T00:01:00.965Z,7.30
2018-09-21T00:02:00.982Z,6.70
2018-09-21T00:03:00.996Z,7.40
2018-09-21T00:04:01.014Z,7.60
2018-09-21T00:05:01.025Z,7.00
2018-09-21T00:06:01.042Z,7.40
2018-09-21T00:07:01.058Z,6.30
2018-09-21T00:08:01.073Z,5.30
2018-09-21T00:09:01.088Z,5.20
2018-09-21T00:10:01.102Z,7.00
2018-09-21T00:11:01.124Z,6.40
2018-09-21T00:12:01.233Z,8.70
2018-09-21T00:13:01.527Z,7.20
2018-09-21T00:14:01.214Z,8.60
2018-09-21T00:15:01.203Z,7.10
2018-09-21T00:16:01.196Z,7.40
2018-09-21T00:17:01.261Z,9.50
2018-09-21T00:18:01.226Z,6.80
2018-09-21T00:19:01.240Z,6.50
2018-09-21T00:20:01.256Z,6.80
2018-09-21T00:21:01.497Z,7.00
2018-09-21T00:22:01.285Z,7.80
2018-09-21T00:23:01.301Z,6.20
2018-09-21T00:24:01.316Z,8.40
2018-09-21T00:25:01.331Z,6.50
2018-09-21T00:26:01.350Z,8.10
2018-09-21T00:27:01.363Z,5.50
2018-09-21T00:28:01.377Z,6.60
2018-09-21T00:29:01.391Z,9.50
2018-09-21T00:30:01.407Z,6.70
2018-09-21T00:31:01.425Z,8.30
2018-09-21T00:32:01.437Z,7.60
2018-09-21T00:33:01.456Z,8.60
2018-09-21T00:34:01.468Z,6.60
2018-09-21T00:35:01.483Z,7.00
2018-09-21T00:36:01.536Z,6.90
2018-09-21T00:37:01.516Z,8.00
2018-09-21T00:38:01.559Z,8.20
2018-09-21T00:39:01.546Z,7.80
2018-09-21T00:40:01.565Z,6.90
2018-09-21T00:41:01.574Z,6.00
2018-09-21T00:42:01.590Z,8.40
2018-09-21T00:43:01.654Z,6.60
2018-09-21T00:46:01.695Z,7.10
2018-09-21T00:47:01.669Z,8.00
2018-09-21T00:48:01.679Z,5.50
2018-09-21T00:49:01.693Z,6.30
2018-09-21T00:50:01.715Z,7.10
2018-09-21T00:51:01.725Z,7.60
2018-09-21T00:52:01.743Z,8.90
2018-09-21T00:53:01.756Z,6.80
2018-09-21T00:54:01.773Z,7.30
2018-09-21T00:55:01.788Z,7.00
2018-09-21T00:56:01.804Z,7.20
2018-09-21T00:57:01.819Z,6.90
2018-09-21T00:58:01.830Z,6.30
2018-09-21T00:59:01.851Z,8.10
2018-09-21T01:00:01.861Z,8.70
2018-09-21T01:01:01.875Z,7.50
2018-09-21T01:02:01.890Z,10.10
2018-09-21T01:03:02.259Z,8.80
2018-09-21T01:04:01.925Z,7.80
2018-09-21T01:05:01.943Z,10.80
2018-09-21T01:06:01.952Z,10.20
2018-09-21T01:07:01.969Z,8.70
2018-09-21T01:08:01.984Z,10.10
2018-09-21T01:09:01.997Z,9.60
2018-09-21T01:10:02.013Z,9.70
2018-09-21T01:11:02.028Z,8.00
2018-09-21T01:12:02.045Z,12.00
2018-09-21T01:13:02.062Z,7.50
2018-09-21T01:14:02.073Z,8.60
2018-09-21T01:15:02.089Z,8.00
2018-09-21T01:16:02.119Z,8.80
2018-09-21T01:17:02.119Z,6.10
2018-09-21T01:18:02.135Z,5.90
2018-09-21T01:20:02.164Z,10.10
2018-09-21T01:21:02.480Z,6.90
2018-09-21T01:22:02.195Z,7.20
2018-09-21T01:23:02.209Z,8.40
2018-09-21T01:24:02.225Z,7.60
2018-09-21T01:25:02.239Z,10.00
2018-09-21T01:26:02.258Z,6.80
2018-09-21T01:27:02.269Z,5.60
2018-09-21T01:28:02.283Z,9.30
2018-09-21T01:29:02.327Z,8.30
2018-09-21T01:30:02.321Z,6.50
2018-09-21T01:31:02.335Z,9.50
2018-09-21T01:32:02.345Z,6.60
2018-09-21T01:33:02.359Z,7.20
2018-09-21T01:34:02.378Z,9.70
2018-09-21T01:35:02.405Z,8.60
2018-09-21T01:36:02.719Z,7.90
2018-09-21T01:37:02.420Z,9.10
2018-09-21T01:38:02.437Z,9.00
2018-09-21T01:39:02.454Z,8.10
2018-09-21T01:40:02.466Z,7.50
2018-09-21T01:41:02.499Z,8.40
2018-09-21T01:42:02.496Z,8.20
2018-09-21T01:43:02.512Z,6.30
2018-09-21T01:44:02.527Z,5.40
2018-09-21T01:45:02.540Z,10.00
2018-09-21T01:46:02.555Z,6.90
2018-09-21T01:47:02.571Z,7.20
2018-09-21T01:48:02.589Z,6.30
2018-09-21T01:49:02.602Z,7.80
2018-09-21T01:50:02.669Z,7.20
2018-09-21T01:53:02.675Z,11.90
2018-09-21T01:54:02.675Z,8.20
2018-09-21T01:55:02.692Z,8.00
2018-09-21T01:56:02.711Z,9.00
2018-09-21T01:57:02.727Z,8.60
2018-09-21T01:58:02.737Z,8.50
2018-09-21T01:59:02.754Z,9.80
2018-09-21T02:00:02.768Z,6.80
2018-09-21T02:01:02.813Z,7.50
2018-09-21T02:02:02.797Z,11.70
2018-09-21T02:03:02.814Z,10.60
2018-09-21T02:04:02.834Z,9.30
2018-09-21T02:05:02.848Z,9.80
2018-09-21T02:06:02.862Z,6.80
2018-09-21T02:07:02.874Z,7.10
2018-09-21T02:08:02.889Z,10.30
2018-09-21T02:09:02.904Z,7.40
2018-09-21T02:10:02.925Z,7.40
2018-09-21T02:11:02.937Z,6.90
2018-09-21T02:12:02.962Z,8.10
2018-09-21T02:13:02.965Z,9.70
2018-09-21T02:14:02.979Z,8.30
2018-09-21T02:15:03.004Z,9.30
2018-09-21T02:16:03.015Z,9.30
2018-09-21T02:17:03.031Z,8.30
2018-09-21T02:18:03.041Z,7.20
2018-09-21T02:19:03.055Z,7.60
2018-09-21T02:20:03.070Z,6.90
2018-09-21T02:21:03.086Z,6.50
2018-09-21T02:22:03.120Z,7.10
2018-09-21T02:23:03.122Z,6.80
2018-09-21T02:24:03.130Z,8.50
2018-09-21T02:25:03.163Z,7.80
2018-09-21T02:26:03.581Z,8.60
2018-09-21T02:27:03.176Z,6.60
2018-09-21T02:28:03.192Z,10.10
2018-09-21T02:29:03.204Z,6.90
2018-09-21T02:30:03.772Z,7.10
2018-09-21T02:31:03.237Z,8.60
2018-09-21T02:32:03.453Z,9.80
2018-09-21T02:33:03.301Z,8.50
2018-09-21T02:34:03.282Z,8.80
2018-09-21T02:35:03.298Z,9.30
2018-09-21T02:36:03.313Z,8.30
2018-09-21T02:37:03.329Z,9.20
2018-09-21T02:38:03.339Z,9.30
2018-09-21T02:39:03.357Z,8.20
2018-09-21T02:40:03.374Z,9.30
2018-09-21T02:41:03.385Z,9.60
2018-09-21T02:42:03.415Z,11.10
2018-09-21T02:43:03.444Z,9.90
2018-09-21T02:44:03.431Z,9.20
2018-09-21T02:45:03.447Z,8.50
2018-09-21T02:46:03.474Z,7.50
2018-09-21T02:47:03.481Z,7.50
2018-09-21T02:48:03.496Z,6.60
2018-09-21T02:49:03.509Z,8.10
2018-09-21T02:50:03.523Z,8.30
2018-09-21T02:51:03.536Z,11.20
2018-09-21T02:52:03.552Z,10.50
2018-09-21T02:53:03.565Z,9.70
2018-09-21T02:54:03.586Z,8.00
2018-09-21T02:55:03.603Z,6.90
2018-09-21T02:58:04.045Z,9.20
2018-09-21T02:59:03.658Z,6.90
2018-09-21T03:00:03.672Z,6.40
2018-09-21T03:01:03.686Z,9.10
2018-09-21T03:02:03.703Z,10.70
2018-09-21T03:03:03.716Z,6.80
2018-09-21T03:04:03.753Z,8.70
2018-09-21T03:05:03.749Z,7.70
2018-09-21T03:06:03.765Z,7.80
2018-09-21T03:07:03.781Z,5.80
2018-09-21T03:08:03.794Z,7.00
2018-09-21T03:09:03.821Z,6.80
2018-09-21T03:10:03.823Z,13.00
2018-09-21T03:11:03.839Z,7.20
2018-09-21T03:12:03.853Z,8.90
2018-09-21T03:13:03.953Z,8.40
2018-09-21T03:14:03.883Z,8.40
2018-09-21T03:15:03.919Z,6.30
2018-09-21T03:16:03.918Z,8.00
2018-09-21T03:17:03.928Z,7.10
2018-09-21T03:18:03.942Z,8.30
2018-09-21T03:19:03.961Z,6.20
2018-09-21T03:20:03.974Z,6.70
2018-09-21T03:21:03.991Z,7.40
2018-09-21T03:22:04.005Z,7.60
2018-09-21T03:23:04.027Z,10.80
2018-09-21T03:24:04.037Z,7.30
2018-09-21T03:25:04.055Z,6.40
2018-09-21T03:26:04.095Z,9.10
2018-09-21T03:27:04.087Z,7.30
2018-09-21T03:28:04.100Z,7.20
2018-09-21T03:29:04.119Z,7.20
2018-09-21T03:30:04.128Z,6.50
2018-09-21T03:31:04.355Z,6.20
2018-09-21T03:33:04.202Z,6.50
2018-09-21T03:34:04.188Z,7.30
2018-09-21T03:35:04.275Z,5.60
2018-09-21T03:36:04.217Z,9.00
2018-09-21T03:37:04.236Z,6.70
2018-09-21T03:38:04.272Z,8.80
2018-09-21T03:39:04.263Z,7.00
2018-09-21T03:40:04.277Z,6.10
2018-09-21T03:41:04.293Z,8.00
2018-09-21T03:42:04.305Z,7.40
2018-09-21T03:43:04.320Z,6.30
2018-09-21T03:44:04.336Z,7.40
2018-09-21T03:45:04.349Z,9.30
2018-09-21T03:46:04.376Z,9.00
2018-09-21T03:47:04.383Z,7.70
2018-09-21T03:48:04.432Z,7.50
2018-09-21T03:49:04.409Z,7.60
2018-09-21T03:50:04.426Z,7.20
2018-09-21T03:51:04.443Z,7.00
2018-09-21T03:52:04.458Z,6.90
2018-09-21T03:53:04.475Z,7.10
2018-09-21T03:54:04.492Z,6.90
2018-09-21T03:55:04.511Z,8.60
2018-09-21T03:56:04.518Z,7.90
2018-09-21T03:57:04.535Z,6.40
2018-09-21T03:58:04.552Z,8.90
2018-09-21T03:59:04.565Z,10.50
2018-09-21T04:00:04.577Z,9.70
2018-09-21T04:01:04.739Z,6.20
2018-09-21T04:03:04.631Z,6.80
2018-09-21T04:04:04.669Z,7.60
2018-09-21T04:05:04.652Z,8.50
2018-09-21T04:06:04.672Z,9.60
2018-09-21T04:07:04.685Z,7.00
2018-09-21T04:08:04.701Z,8.90
2018-09-21T04:09:04.713Z,8.20
2018-09-21T04:10:04.727Z,7.20
2018-09-21T04:11:04.745Z,7.90
2018-09-21T04:12:04.757Z,5.00
2018-09-21T04:13:04.771Z,8.80
2018-09-21T04:14:04.788Z,6.90
2018-09-21T04:15:04.803Z,6.70
2018-09-21T04:16:04.821Z,6.50
2018-09-21T04:17:04.852Z,6.80
2018-09-21T04:18:04.847Z,5.60
2018-09-21T04:19:04.866Z,7.20
2018-09-21T04:20:04.879Z,6.20
2018-09-21T04:21:04.892Z,8.30
2018-09-21T04:22:04.906Z,7.30
2018-09-21T04:23:04.993Z,6.60
2018-09-21T04:24:04.939Z,6.90
2018-09-21T04:25:04.956Z,7.40
2018-09-21T04:26:04.968Z,8.90
2018-09-21T04:27:04.984Z,8.40
2018-09-21T04:28:04.997Z,11.60
2018-09-21T04:29:05.012Z,7.90
2018-09-21T04:30:05.033Z,7.40
2018-09-21T04:31:05.043Z,8.30
2018-09-21T04:32:05.062Z,9.00
2018-09-21T04:33:05.073Z,8.70
2018-09-21T04:34:05.103Z,8.70
2018-09-21T04:35:05.138Z,12.60
2018-09-21T04:36:05.136Z,9.00
2018-09-21T04:37:05.195Z,10.80
2018-09-21T04:38:05.153Z,7.40
2018-09-21T04:39:05.165Z,9.60
2018-09-21T04:40:05.183Z,7.70
2018-09-21T04:41:05.192Z,9.00
2018-09-21T04:42:05.211Z,7.40
2018-09-21T04:43:05.232Z,8.00
2018-09-21T04:44:05.243Z,7.40
2018-09-21T04:45:05.255Z,9.00
2018-09-21T04:46:05.412Z,9.00
2018-09-21T04:47:05.286Z,11.00
2018-09-21T04:48:05.312Z,8.30
2018-09-21T04:49:05.315Z,7.10
2018-09-21T04:50:05.338Z,8.00
2018-09-21T04:51:05.348Z,9.00
2018-09-21T04:52:05.375Z,8.90
2018-09-21T04:53:05.380Z,7.40
2018-09-21T04:54:05.392Z,8.40
2018-09-21T04:55:05.406Z,10.40
2018-09-21T04:56:05.420Z,10.10
2018-09-21T04:57:05.436Z,7.20
2018-09-21T04:58:05.454Z,9.20
2018-09-21T04:59:05.507Z,12.70
2018-09-21T05:00:05.483Z,8.30
2018-09-21T05:01:05.498Z,5.80
2018-09-21T05:02:05.985Z,7.40
2018-09-21T05:03:05.931Z,7.90
2018-09-21T05:04:05.553Z,7.90
2018-09-21T05:05:05.694Z,6.60
2018-09-21T05:06:05.594Z,9.20
2018-09-21T05:07:06.269Z,8.20
2018-09-21T05:08:06.135Z,6.00
2018-09-21T05:09:05.621Z,7.50
2018-09-21T05:10:05.636Z,8.20
2018-09-21T05:11:05.682Z,8.10
2018-09-21T05:12:05.729Z,8.30
2018-09-21T05:13:05.691Z,9.50
2018-09-21T05:14:05.697Z,5.20
2018-09-21T05:15:05.715Z,7.70
2018-09-21T05:16:05.726Z,9.10
2018-09-21T05:17:05.734Z,7.70
2018-09-21T05:18:05.768Z,11.50
2018-09-21T05:19:05.763Z,8.30
2018-09-21T05:20:05.776Z,7.90
2018-09-21T05:21:05.794Z,8.30
2018-09-21T05:22:05.810Z,6.70
2018-09-21T05:23:05.822Z,7.20
2018-09-21T05:24:05.837Z,6.10
2018-09-21T05:25:05.850Z,6.00
2018-09-21T05:26:05.867Z,6.50
2018-09-21T05:27:05.886Z,6.20
2018-09-21T05:28:05.899Z,7.10
2018-09-21T05:29:05.936Z,6.40
2018-09-21T05:30:05.939Z,8.40
2018-09-21T05:31:05.965Z,6.60
2018-09-21T05:32:05.959Z,7.50
2018-09-21T05:33:05.978Z,9.30
2018-09-21T05:34:06.049Z,10.20
2018-09-21T05:35:06.091Z,8.20
2018-09-21T05:36:06.019Z,8.90
2018-09-21T05:37:06.212Z,7.60
2018-09-21T05:38:06.073Z,14.20
2018-09-21T05:39:06.073Z,8.90
2018-09-21T05:40:06.079Z,7.70
2018-09-21T05:41:06.095Z,5.50
2018-09-21T05:42:06.108Z,7.60
2018-09-21T05:43:06.123Z,7.70
2018-09-21T05:44:06.139Z,6.90
2018-09-21T05:45:06.160Z,9.50
2018-09-21T05:46:06.245Z,8.20
2018-09-21T05:47:06.233Z,7.10
2018-09-21T05:48:06.203Z,8.00
2018-09-21T05:49:06.216Z,9.30
2018-09-21T05:50:06.235Z,7.40
2018-09-21T05:51:06.246Z,7.40
2018-09-21T05:52:06.284Z,8.30
2018-09-21T05:53:06.281Z,6.10
2018-09-21T05:54:06.297Z,8.20
2018-09-21T05:55:06.307Z,8.60
2018-09-21T05:56:06.392Z,5.30
2018-09-21T05:57:06.384Z,8.30
2018-09-21T05:58:06.378Z,8.80
2018-09-21T05:59:06.396Z,8.40
2018-09-21T06:00:06.429Z,6.00
2018-09-21T06:01:06.404Z,6.20
2018-09-21T06:02:06.649Z,7.00
2018-09-21T06:03:06.442Z,8.70
2018-09-21T06:04:06.446Z,7.80
2018-09-21T06:05:06.458Z,8.80
2018-09-21T06:06:06.485Z,9.80
2018-09-21T06:07:06.496Z,8.50
2018-09-21T06:08:06.548Z,7.20
2018-09-21T06:09:06.520Z,6.30
2018-09-21T06:10:06.541Z,8.00
2018-09-21T06:11:06.585Z,7.80
2018-09-21T06:12:06.569Z,6.70
2018-09-21T06:13:06.580Z,8.80
2018-09-21T06:14:06.674Z,5.90
2018-09-21T06:15:06.629Z,6.70
2018-09-21T06:16:06.631Z,7.60
2018-09-21T06:17:06.789Z,8.70
2018-09-21T06:18:06.689Z,10.80
2018-09-21T06:19:06.733Z,7.80
2018-09-21T06:20:12.107Z,8.10
2018-09-21T06:21:06.750Z,8.50
2018-09-21T06:22:06.737Z,7.70
2018-09-21T06:23:06.927Z,7.00
2018-09-21T06:24:06.750Z,8.60
2018-09-21T06:25:06.776Z,6.90
2018-09-21T06:26:06.780Z,8.00
2018-09-21T06:27:06.797Z,8.70
2018-09-21T06:28:06.810Z,8.40
2018-09-21T06:29:06.826Z,11.70
2018-09-21T06:30:07.139Z,6.40
2018-09-21T06:31:06.963Z,6.70
2018-09-21T06:32:06.873Z,9.00
2018-09-21T06:33:06.892Z,7.60
2018-09-21T06:34:07.371Z,7.20
2018-09-21T06:35:06.918Z,8.00
2018-09-21T06:36:07.149Z,6.80
2018-09-21T06:37:07.293Z,8.00
2018-09-21T06:38:06.965Z,7.70
2018-09-21T06:39:06.979Z,7.90
2018-09-21T06:40:06.995Z,7.20
2018-09-21T06:41:07.052Z,6.20
2018-09-21T06:42:07.023Z,9.30
2018-09-21T06:43:07.039Z,10.40
2018-09-21T06:44:07.057Z,6.30
2018-09-21T06:45:07.090Z,7.30
2018-09-21T06:46:07.175Z,6.40
2018-09-21T06:47:07.100Z,6.90
2018-09-21T06:48:07.115Z,11.40
2018-09-21T06:49:07.131Z,8.20
2018-09-21T06:50:07.148Z,8.50
2018-09-21T06:51:07.168Z,8.30
2018-09-21T06:52:07.183Z,6.80
2018-09-21T06:53:07.366Z,8.60
2018-09-21T06:54:07.208Z,10.20
2018-09-21T06:55:07.428Z,8.40
2018-09-21T06:56:07.238Z,9.30
2018-09-21T06:57:07.255Z,8.00
2018-09-21T06:58:07.268Z,9.60
2018-09-21T06:59:07.712Z,9.10
2018-09-21T07:00:07.306Z,6.50
2018-09-21T07:01:07.316Z,9.30
2018-09-21T07:02:07.391Z,9.10
2018-09-21T07:03:07.350Z,6.90
2018-09-21T07:04:07.363Z,5.30
2018-09-21T07:05:07.379Z,6.40
2018-09-21T07:06:07.425Z,6.40
2018-09-21T07:07:07.406Z,5.90
2018-09-21T07:08:07.423Z,8.10
2018-09-21T07:09:07.438Z,9.50
2018-09-21T07:10:07.483Z,6.80
2018-09-21T07:11:07.473Z,6.00
2018-09-21T07:12:07.487Z,7.40
2018-09-21T07:13:07.703Z,8.10
2018-09-21T07:14:07.524Z,8.80
2018-09-21T07:15:07.546Z,8.20
2018-09-21T07:16:07.545Z,8.50
2018-09-21T07:17:07.563Z,11.30
2018-09-21T07:18:07.577Z,8.30
2018-09-21T07:19:07.593Z,8.10
2018-09-21T07:20:07.609Z,8.60
2018-09-21T07:21:07.623Z,9.00
2018-09-21T07:22:07.638Z,10.50
2018-09-21T07:23:07.658Z,8.30
2018-09-21T07:24:07.678Z,6.40
2018-09-21T07:25:07.684Z,9.00
2018-09-21T07:26:07.700Z,8.90
2018-09-21T07:27:07.716Z,5.20
2018-09-21T07:28:07.735Z,6.20
2018-09-21T07:29:07.778Z,7.50
2018-09-21T07:30:07.768Z,6.50
2018-09-21T07:31:07.810Z,12.50
2018-09-21T07:32:07.792Z,7.90
2018-09-21T07:33:07.808Z,8.40
2018-09-21T07:34:07.825Z,8.70
2018-09-21T07:35:07.863Z,8.80
2018-09-21T07:36:07.857Z,7.80
2018-09-21T07:37:07.868Z,7.10
2018-09-21T07:38:07.888Z,7.80
2018-09-21T07:39:07.923Z,6.50
2018-09-21T07:40:07.944Z,5.70
2018-09-21T07:41:08.847Z,9.40
2018-09-21T07:42:07.954Z,4.70
2018-09-21T07:43:08.084Z,8.00
2018-09-21T07:44:07.978Z,6.40
2018-09-21T07:45:07.991Z,6.50
2018-09-21T07:46:08.008Z,6.70
2018-09-21T07:47:08.023Z,5.90
2018-09-21T07:48:08.038Z,6.90
2018-09-21T07:49:08.055Z,7.10
2018-09-21T07:50:08.069Z,7.90
2018-09-21T07:51:08.086Z,6.80
2018-09-21T07:52:08.123Z,6.50
2018-09-21T07:53:08.117Z,8.90
2018-09-21T07:54:08.136Z,8.80
2018-09-21T07:56:08.489Z,6.20
2018-09-21T07:57:08.178Z,4.70
2018-09-21T07:59:08.264Z,8.00
2018-09-21T08:00:08.225Z,7.90
2018-09-21T08:01:08.241Z,4.20
2018-09-21T08:02:08.282Z,8.60
2018-09-21T08:03:08.272Z,8.70
2018-09-21T08:04:08.607Z,6.50
2018-09-21T08:05:08.312Z,10.20
2018-09-21T08:06:08.323Z,7.30
2018-09-21T08:07:08.395Z,7.60
2018-09-21T08:08:08.346Z,8.90
2018-09-21T08:09:08.363Z,5.60
2018-09-21T08:10:08.378Z,7.80
2018-09-21T08:11:08.396Z,6.60
2018-09-21T08:12:08.415Z,6.80
2018-09-21T08:13:08.431Z,9.30
2018-09-21T08:14:08.444Z,8.20
2018-09-21T08:15:08.480Z,11.10
2018-09-21T08:16:08.474Z,11.20
2018-09-21T08:17:08.509Z,5.40
2018-09-21T08:18:08.501Z,5.60
2018-09-21T08:19:08.517Z,8.40
2018-09-21T08:20:08.557Z,5.80
2018-09-21T08:21:08.546Z,8.00
2018-09-21T08:22:08.563Z,7.70
2018-09-21T08:23:08.581Z,7.80
2018-09-21T08:24:08.595Z,7.20
2018-09-21T08:25:08.629Z,5.80
2018-09-21T08:26:09.879Z,6.00
2018-09-21T08:27:08.647Z,6.60
2018-09-21T08:28:08.660Z,5.30
2018-09-21T08:29:08.670Z,6.00
2018-09-21T08:30:08.690Z,6.20
2018-09-21T08:31:08.708Z,5.80
2018-09-21T08:32:08.722Z,4.00
2018-09-21T08:33:08.749Z,7.00
2018-09-21T08:34:08.753Z,7.80
2018-09-21T08:35:08.764Z,8.10
2018-09-21T08:36:08.781Z,9.20
2018-09-21T08:37:08.823Z,8.50
2018-09-21T08:38:08.812Z,6.50
2018-09-21T08:39:08.829Z,7.10
2018-09-21T08:40:08.866Z,10.20
2018-09-21T08:41:08.870Z,5.80
2018-09-21T08:42:08.874Z,6.10
2018-09-21T08:43:08.889Z,5.60
2018-09-21T08:44:08.909Z,6.00
2018-09-21T08:45:08.921Z,9.60
2018-09-21T08:46:08.935Z,9.20
2018-09-21T08:47:08.964Z,5.40
2018-09-21T08:48:08.968Z,6.40
2018-09-21T08:49:08.984Z,6.40
2018-09-21T08:50:09.005Z,7.10
2018-09-21T08:51:09.014Z,9.10
2018-09-21T08:52:09.037Z,7.20
2018-09-21T08:53:09.363Z,5.40
2018-09-21T08:54:09.067Z,7.30
2018-09-21T08:55:09.077Z,7.20
2018-09-21T08:56:09.093Z,5.70
2018-09-21T08:57:09.109Z,8.80
2018-09-21T08:58:09.124Z,5.90
2018-09-21T08:59:09.139Z,6.60
2018-09-21T09:00:09.154Z,7.50
2018-09-21T09:01:09.169Z,9.00
2018-09-21T09:02:09.186Z,5.30
2018-09-21T09:03:09.235Z,6.10
2018-09-21T09:04:09.217Z,6.50
2018-09-21T09:05:09.235Z,10.80
2018-09-21T09:06:09.249Z,8.20
2018-09-21T09:07:09.323Z,8.00
2018-09-21T09:08:09.281Z,9.80
2018-09-21T09:09:09.292Z,7.50
2018-09-21T09:10:09.308Z,6.60
2018-09-21T09:11:09.736Z,9.20
2018-09-21T09:12:09.345Z,8.50
2018-09-21T09:13:09.354Z,6.00
2018-09-21T09:14:09.368Z,9.30
2018-09-21T09:15:09.416Z,10.00
2018-09-21T09:16:09.400Z,11.30
2018-09-21T09:17:09.414Z,10.40
2018-09-21T09:18:09.428Z,8.60
2018-09-21T09:19:09.443Z,7.90
2018-09-21T09:20:09.457Z,6.70
2018-09-21T09:21:09.473Z,9.20
2018-09-21T09:22:09.496Z,9.10
2018-09-21T09:23:09.604Z,9.40
2018-09-21T09:24:09.518Z,9.50
2018-09-21T09:25:09.546Z,8.70
2018-09-21T09:26:09.545Z,9.20
2018-09-21T09:27:09.566Z,8.30
2018-09-21T09:28:09.600Z,6.30
2018-09-21T09:29:09.589Z,7.30
2018-09-21T09:30:09.696Z,11.60
2018-09-21T09:31:09.669Z,9.90
2018-09-21T09:32:09.633Z,11.80
2018-09-21T09:33:09.650Z,15.50
2018-09-21T09:34:09.664Z,7.60
2018-09-21T09:35:09.680Z,11.80
2018-09-21T09:36:09.705Z,12.20
2018-09-21T09:37:09.704Z,8.50
2018-09-21T09:38:10.071Z,11.90
2018-09-21T09:39:09.747Z,11.00
2018-09-21T09:40:09.974Z,10.90
2018-09-21T09:41:09.761Z,11.50
2018-09-21T09:42:09.779Z,10.90
2018-09-21T09:43:09.848Z,12.80
2018-09-21T09:44:09.805Z,11.40
2018-09-21T09:45:09.843Z,12.90
2018-09-21T09:46:09.831Z,13.60
2018-09-21T09:47:09.857Z,12.70
2018-09-21T09:48:09.874Z,10.70
2018-09-21T09:49:09.888Z,11.10
2018-09-21T09:50:09.890Z,13.10
2018-09-21T09:51:09.956Z,10.80
2018-09-21T09:52:09.920Z,13.10
2018-09-21T09:53:09.935Z,12.70
2018-09-21T09:54:09.946Z,16.70
2018-09-21T09:55:09.967Z,12.70
2018-09-21T09:56:09.974Z,15.00
2018-09-21T09:57:10.021Z,11.50
2018-09-21T09:58:09.999Z,12.60
2018-09-21T09:59:10.014Z,15.10
2018-09-21T10:00:10.031Z,11.70
2018-09-21T10:01:10.042Z,13.10
2018-09-21T10:02:10.059Z,14.20
2018-09-21T10:03:10.076Z,12.90
2018-09-21T10:04:10.086Z,17.20
2018-09-21T10:05:10.113Z,13.20
2018-09-21T10:06:10.121Z,16.80
2018-09-21T10:07:10.203Z,13.30
2018-09-21T10:08:10.181Z,14.00
2018-09-21T10:09:10.198Z,12.00
2018-09-21T10:10:10.224Z,13.10
2018-09-21T10:11:10.189Z,15.60
2018-09-21T10:12:10.202Z,13.00
2018-09-21T10:13:10.211Z,9.30
2018-09-21T10:14:10.234Z,9.70
2018-09-21T10:15:10.240Z,14.30
2018-09-21T10:16:10.257Z,10.70
2018-09-21T10:17:10.293Z,8.50
2018-09-21T10:18:11.343Z,11.80
2018-09-21T10:19:10.298Z,13.20
2018-09-21T10:20:10.312Z,9.70
2018-09-21T10:21:10.356Z,13.30
2018-09-21T10:22:10.347Z,9.50
2018-09-21T10:23:10.355Z,10.60
2018-09-21T10:24:10.446Z,9.90
2018-09-21T10:25:10.386Z,11.40
2018-09-21T10:26:10.399Z,12.60
2018-09-21T10:27:10.477Z,11.80
2018-09-21T10:28:10.522Z,8.80
2018-09-21T10:29:10.444Z,10.40
2018-09-21T10:30:10.455Z,11.70
2018-09-21T10:31:10.477Z,10.60
2018-09-21T10:32:10.484Z,11.60
2018-09-21T10:33:10.502Z,10.10
2018-09-21T10:34:10.542Z,12.80
2018-09-21T10:35:10.530Z,12.90
2018-09-21T10:36:10.557Z,7.90
2018-09-21T10:37:10.635Z,10.10
2018-09-21T10:38:10.780Z,11.20
2018-09-21T10:39:10.672Z,8.40
2018-09-21T10:40:10.693Z,7.20
2018-09-21T10:41:10.613Z,11.10
2018-09-21T10:42:10.632Z,10.10
2018-09-21T10:44:10.670Z,7.40
2018-09-21T10:45:11.130Z,10.00
2018-09-21T10:46:10.686Z,7.10
2018-09-21T10:47:10.700Z,10.20
2018-09-21T10:48:10.718Z,11.10
2018-09-21T10:49:10.728Z,9.40
2018-09-21T10:50:10.742Z,10.20
2018-09-21T10:51:10.755Z,8.70
2018-09-21T10:52:10.775Z,11.10
2018-09-21T10:53:10.788Z,7.90
2018-09-21T10:54:10.801Z,9.80
2018-09-21T10:55:10.821Z,7.80
2018-09-21T10:56:10.829Z,7.60
2018-09-21T10:57:10.843Z,10.10
2018-09-21T10:58:10.861Z,8.50
2018-09-21T10:59:10.874Z,8.00
2018-09-21T11:00:10.891Z,9.50
2018-09-21T11:01:10.901Z,9.20
2018-09-21T11:02:10.914Z,10.00
2018-09-21T11:03:10.935Z,7.50
2018-09-21T11:04:10.943Z,10.50
2018-09-21T11:05:11.008Z,6.70
2018-09-21T11:06:10.975Z,10.10
2018-09-21T11:07:11.103Z,10.20
2018-09-21T11:08:11.420Z,8.40
2018-09-21T11:09:11.016Z,9.10
2018-09-21T11:10:11.037Z,8.40
2018-09-21T11:11:11.046Z,7.00
2018-09-21T11:12:11.062Z,9.00
2018-09-21T11:13:11.125Z,8.40
2018-09-21T11:14:11.089Z,8.10
2018-09-21T11:15:11.104Z,7.50
2018-09-21T11:16:11.120Z,6.50
2018-09-21T11:17:11.136Z,8.40
2018-09-21T11:18:11.149Z,8.10
2018-09-21T11:19:11.169Z,9.70
2018-09-21T11:20:11.179Z,8.80
2018-09-21T11:21:11.193Z,8.20
2018-09-21T11:22:11.207Z,8.30
2018-09-21T11:23:11.220Z,8.10
2018-09-21T11:24:11.239Z,9.10
2018-09-21T11:25:11.253Z,5.90
2018-09-21T11:26:11.266Z,11.30
2018-09-21T11:27:11.282Z,11.80
2018-09-21T11:28:11.299Z,9.80
2018-09-21T11:29:11.315Z,10.80
2018-09-21T11:30:11.326Z,9.60
2018-09-21T11:31:11.347Z,8.90
2018-09-21T11:32:11.358Z,7.70
2018-09-21T11:33:11.410Z,7.60
2018-09-21T11:34:11.384Z,8.10
2018-09-21T11:35:11.433Z,10.20
2018-09-21T11:36:11.413Z,11.90
2018-09-21T11:37:11.427Z,9.40
2018-09-21T11:38:11.450Z,7.10
2018-09-21T11:39:11.462Z,10.50
2018-09-21T11:40:11.475Z,8.00
2018-09-21T11:41:11.490Z,10.30
2018-09-21T11:42:11.519Z,9.60
2018-09-21T11:43:11.517Z,9.60
2018-09-21T11:44:11.535Z,10.50
2018-09-21T11:45:11.547Z,10.00
2018-09-21T11:46:11.577Z,9.20
2018-09-21T11:47:11.592Z,8.30
2018-09-21T11:48:11.594Z,7.60
2018-09-21T11:49:11.608Z,9.70
2018-09-21T11:50:11.622Z,9.10
2018-09-21T11:51:11.681Z,9.70
2018-09-21T11:52:11.667Z,8.30
2018-09-21T11:53:11.693Z,13.10
2018-09-21T11:54:11.685Z,8.60
2018-09-21T11:55:11.698Z,9.40
2018-09-21T11:56:11.713Z,9.10
2018-09-21T11:57:11.726Z,9.50
2018-09-21T11:58:11.741Z,9.00
2018-09-21T11:59:11.754Z,8.80
2018-09-21T12:00:11.830Z,10.50
2018-09-21T12:01:11.797Z,12.00
2018-09-21T12:02:11.799Z,8.10
2018-09-21T12:03:11.816Z,7.50
2018-09-21T12:04:11.831Z,10.40
2018-09-21T12:05:11.843Z,12.60
2018-09-21T12:06:11.868Z,9.30
2018-09-21T12:07:11.874Z,9.90
2018-09-21T12:08:11.891Z,8.20
2018-09-21T12:09:11.904Z,9.00
2018-09-21T12:10:11.919Z,11.20
2018-09-21T12:11:11.934Z,7.90
2018-09-21T12:12:11.949Z,12.90
2018-09-21T12:13:11.991Z,12.50
2018-09-21T12:14:11.978Z,12.40
2018-09-21T12:15:11.991Z,11.20
2018-09-21T12:16:12.007Z,10.80
2018-09-21T12:17:12.036Z,10.00
2018-09-21T12:18:12.038Z,8.60
2018-09-21T12:19:12.052Z,8.70
2018-09-21T12:20:12.065Z,11.30
2018-09-21T12:21:12.086Z,9.50
2018-09-21T12:22:12.130Z,7.00
2018-09-21T12:23:12.111Z,7.00
2018-09-21T12:25:12.183Z,8.90
2018-09-21T12:26:12.163Z,9.30
2018-09-21T12:27:12.192Z,6.40
2018-09-21T12:28:12.199Z,6.60
2018-09-21T12:29:12.211Z,9.20
2018-09-21T12:30:12.268Z,7.50
2018-09-21T12:31:12.230Z,6.30
2018-09-21T12:32:12.249Z,7.20
2018-09-21T12:33:12.259Z,7.90
2018-09-21T12:34:12.278Z,8.00
2018-09-21T12:35:12.287Z,8.20
2018-09-21T12:36:12.357Z,8.90
2018-09-21T12:37:12.315Z,8.30
2018-09-21T12:38:12.330Z,6.90
2018-09-21T12:39:12.349Z,7.60
2018-09-21T12:40:12.359Z,5.20
2018-09-21T12:41:12.375Z,5.50
2018-09-21T12:42:12.389Z,6.80
2018-09-21T12:43:12.407Z,3.50
2018-09-21T12:44:12.424Z,6.90
2018-09-21T12:45:12.437Z,5.50
2018-09-21T12:46:12.451Z,5.80
2018-09-21T12:47:12.489Z,3.50
2018-09-21T12:48:12.479Z,4.50
2018-09-21T12:49:12.496Z,4.20
2018-09-21T12:50:12.601Z,4.80
2018-09-21T12:51:12.523Z,5.60
2018-09-21T12:52:12.548Z,4.30
2018-09-21T12:53:12.612Z,3.70
2018-09-21T12:54:12.576Z,5.20
2018-09-21T12:55:12.594Z,2.70
2018-09-21T12:56:12.596Z,4.50
2018-09-21T12:57:12.618Z,4.50
2018-09-21T12:58:12.692Z,2.80
2018-09-21T12:59:12.641Z,3.30
2018-09-21T13:00:12.655Z,3.30
2018-09-21T13:01:12.686Z,4.10
2018-09-21T13:02:12.713Z,3.10
2018-09-21T13:03:12.705Z,1.70
2018-09-21T13:04:12.736Z,2.70
2018-09-21T13:05:12.750Z,4.00
2018-09-21T13:06:12.792Z,2.40
2018-09-21T13:07:12.758Z,3.00
2018-09-21T13:08:12.826Z,4.60
2018-09-21T13:09:12.788Z,4.10
2018-09-21T13:10:12.803Z,5.50
2018-09-21T13:11:12.855Z,2.70
2018-09-21T13:12:12.833Z,3.70
2018-09-21T13:13:12.847Z,3.20
2018-09-21T13:14:12.857Z,3.20
2018-09-21T13:15:12.905Z,5.20
2018-09-21T13:16:12.986Z,2.80
2018-09-21T13:17:13.431Z,4.30
2018-09-21T13:18:12.971Z,3.20
2018-09-21T13:19:12.936Z,2.40
2018-09-21T13:20:13.015Z,2.10
2018-09-21T13:21:12.967Z,2.70
2018-09-21T13:22:12.969Z,2.70
2018-09-21T13:23:12.986Z,2.90
2018-09-21T13:24:13.625Z,3.20
2018-09-21T13:25:13.019Z,3.00
2018-09-21T13:26:13.034Z,1.90